sensor_id;sensor_type;location;lat;lon;timestamp;pressure;altitude;pressure_sealevel;temperature;humidity
43838;BME280;65998;46.256;7.534;2022-12-22T00:01:09;86930.50;;;5.06;100.00
43838;BME280;65998;46.256;7.534;2022-12-22T00:03:53;86923.69;;;5.07;100.00
43838;BME280;65998;46.256;7.534;2022-12-22T00:06:38;86916.13;;;4.95;100.00
43838;BME280;65998;46.256;7.534;2022-12-22T00:09:22;86916.16;;;4.99;100.00
43838;BME280;65998;46.256;7.534;2022-12-22T00:12:07;86908.69;;;5.02;100.00
43838;BME280;65998;46.256;7.534;2022-12-22T00:14:52;86917.41;;;4.86;100.00
43838;BME280;65998;46.256;7.534;2022-12-22T00:17:36;86915.91;;;4.69;100.00
43838;BME280;65998;46.256;7.534;2022-12-22T00:20:20;86910.47;;;4.69;100.00
43838;BME280;65998;46.256;7.534;2022-12-22T00:23:07;86909.72;;;4.62;100.00
43838;BME280;65998;46.256;7.534;2022-12-22T00:25:51;86907.06;;;4.68;100.00
43838;BME280;65998;46.256;7.534;2022-12-22T00:28:36;86907.69;;;4.65;100.00
43838;BME280;65998;46.256;7.534;2022-12-22T00:31:20;86916.50;;;4.61;100.00
43838;BME280;65998;46.256;7.534;2022-12-22T00:34:08;86911.09;;;4.63;100.00
43838;BME280;65998;46.256;7.534;2022-12-22T00:36:55;86907.00;;;4.62;100.00
43838;BME280;65998;46.256;7.534;2022-12-22T00:39:39;86898.88;;;4.66;100.00
43838;BME280;65998;46.256;7.534;2022-12-22T00:42:23;86899.59;;;4.73;100.00
43838;BME280;65998;46.256;7.534;2022-12-22T00:45:07;86903.03;;;4.75;100.00
43838;BME280;65998;46.256;7.534;2022-12-22T00:47:52;86911.97;;;4.86;100.00
43838;BME280;65998;46.256;7.534;2022-12-22T00:50:36;86922.25;;;4.94;100.00
43838;BME280;65998;46.256;7.534;2022-12-22T00:53:20;86922.88;;;4.88;100.00
43838;BME280;65998;46.256;7.534;2022-12-22T00:56:05;86928.34;;;4.90;100.00
43838;BME280;65998;46.256;7.534;2022-12-22T00:58:50;86932.41;;;4.89;100.00
43838;BME280;65998;46.256;7.534;2022-12-22T01:01:36;86945.31;;;4.85;100.00
43838;BME280;65998;46.256;7.534;2022-12-22T01:04:20;86943.19;;;4.75;100.00
43838;BME280;65998;46.256;7.534;2022-12-22T01:07:05;86930.28;;;4.79;100.00
43838;BME280;65998;46.256;7.534;2022-12-22T01:09:50;86924.25;;;4.89;100.00
43838;BME280;65998;46.256;7.534;2022-12-22T01:12:36;86931.81;;;4.99;100.00
43838;BME280;65998;46.256;7.534;2022-12-22T01:15:22;86933.84;;;4.98;100.00
43838;BME280;65998;46.256;7.534;2022-12-22T01:18:06;86937.25;;;4.99;100.00
43838;BME280;65998;46.256;7.534;2022-12-22T01:20:51;86925.59;;;4.88;100.00
43838;BME280;65998;46.256;7.534;2022-12-22T01:23:36;86926.91;;;4.81;100.00
43838;BME280;65998;46.256;7.534;2022-12-22T01:26:20;86931.63;;;4.78;100.00
43838;BME280;65998;46.256;7.534;2022-12-22T01:29:04;86929.59;;;4.77;100.00
43838;BME280;65998;46.256;7.534;2022-12-22T01:31:48;86932.94;;;4.73;100.00
43838;BME280;65998;46.256;7.534;2022-12-22T01:34:34;86929.63;;;4.83;100.00
43838;BME280;65998;46.256;7.534;2022-12-22T01:37:18;86932.28;;;4.75;100.00
43838;BME280;65998;46.256;7.534;2022-12-22T01:40:03;86934.38;;;4.80;100.00
43838;BME280;65998;46.256;7.534;2022-12-22T01:42:47;86945.97;;;4.83;100.00
43838;BME280;65998;46.256;7.534;2022-12-22T01:45:32;86941.22;;;4.86;100.00
43838;BME280;65998;46.256;7.534;2022-12-22T01:48:20;86933.47;;;4.56;100.00
43838;BME280;65998;46.256;7.534;2022-12-22T01:51:10;86943.13;;;4.69;100.00
43838;BME280;65998;46.256;7.534;2022-12-22T01:53:55;86946.56;;;4.73;100.00
43838;BME280;65998;46.256;7.534;2022-12-22T01:56:41;86943.91;;;4.81;100.00
43838;BME280;65998;46.256;7.534;2022-12-22T01:59:25;86943.91;;;4.81;100.00
43838;BME280;65998;46.256;7.534;2022-12-22T02:02:09;86948.69;;;4.81;100.00
43838;BME280;65998;46.256;7.534;2022-12-22T02:04:53;86947.28;;;4.78;100.00
43838;BME280;65998;46.256;7.534;2022-12-22T02:19:01;86945.13;;;4.66;100.00
43838;BME280;65998;46.256;7.534;2022-12-22T02:24:57;86946.47;;;4.63;100.00
43838;BME280;65998;46.256;7.534;2022-12-22T02:27:44;86952.56;;;4.62;100.00
43838;BME280;65998;46.256;7.534;2022-12-22T02:30:30;86957.41;;;4.69;100.00
43838;BME280;65998;46.256;7.534;2022-12-22T02:33:16;86952.66;;;4.70;100.00
43838;BME280;65998;46.256;7.534;2022-12-22T02:38:48;86950.00;;;4.76;100.00
43838;BME280;65998;46.256;7.534;2022-12-22T02:47:41;86952.72;;;4.78;100.00
43838;BME280;65998;46.256;7.534;2022-12-22T02:53:11;86948.63;;;4.77;100.00
43838;BME280;65998;46.256;7.534;2022-12-22T02:55:58;86946.56;;;4.73;100.00
43838;BME280;65998;46.256;7.534;2022-12-22T02:58:43;86945.19;;;4.70;100.00
43838;BME280;65998;46.256;7.534;2022-12-22T03:01:28;86953.91;;;4.59;100.00
43838;BME280;65998;46.256;7.534;2022-12-22T03:04:12;86955.91;;;4.54;100.00
43838;BME280;65998;46.256;7.534;2022-12-22T03:06:56;86963.38;;;4.52;100.00
43838;BME280;65998;46.256;7.534;2022-12-22T03:09:40;86963.31;;;4.47;100.00
43838;BME280;65998;46.256;7.534;2022-12-22T03:12:24;86960.66;;;4.54;100.00
43838;BME280;65998;46.256;7.534;2022-12-22T03:15:09;86966.13;;;4.56;100.00
43838;BME280;65998;46.256;7.534;2022-12-22T03:17:52;86967.47;;;4.55;100.00
43838;BME280;65998;46.256;7.534;2022-12-22T03:20:37;86969.50;;;4.52;100.00
43838;BME280;65998;46.256;7.534;2022-12-22T03:23:21;86965.44;;;4.55;100.00
43838;BME280;65998;46.256;7.534;2022-12-22T03:26:05;86956.47;;;4.42;100.00
43838;BME280;65998;46.256;7.534;2022-12-22T03:28:31;86953.19;;;4.54;100.00
43838;BME280;65998;46.256;7.534;2022-12-22T03:31:01;86945.75;;;4.61;100.00
43838;BME280;65998;46.256;7.534;2022-12-22T03:33:27;86949.84;;;4.60;100.00
43838;BME280;65998;46.256;7.534;2022-12-22T03:35:53;86956.72;;;4.67;100.00
43838;BME280;65998;46.256;7.534;2022-12-22T03:38:19;86968.25;;;4.65;100.00
43838;BME280;65998;46.256;7.534;2022-12-22T03:40:45;86958.59;;;4.52;100.00
43838;BME280;65998;46.256;7.534;2022-12-22T03:43:11;86956.75;;;4.73;100.00
43838;BME280;65998;46.256;7.534;2022-12-22T03:45:56;86956.13;;;4.76;100.00
43838;BME280;65998;46.256;7.534;2022-12-22T03:48:40;86964.31;;;4.78;100.00
43838;BME280;65998;46.256;7.534;2022-12-22T03:51:06;86958.88;;;4.80;100.00
43838;BME280;65998;46.256;7.534;2022-12-22T03:53:31;86963.38;;;4.52;100.00
43838;BME280;65998;46.256;7.534;2022-12-22T03:55:57;86951.72;;;4.45;100.00
43838;BME280;65998;46.256;7.534;2022-12-22T03:58:23;86967.47;;;4.55;100.00
43838;BME280;65998;46.256;7.534;2022-12-22T04:00:49;86966.09;;;4.54;100.00
43838;BME280;65998;46.256;7.534;2022-12-22T04:03:14;86958.66;;;4.56;100.00
43838;BME280;65998;46.256;7.534;2022-12-22T04:05:40;86968.19;;;4.57;100.00
43838;BME280;65998;46.256;7.534;2022-12-22T04:08:06;86952.44;;;4.47;100.00
43838;BME280;65998;46.256;7.534;2022-12-22T04:10:32;86946.94;;;4.41;100.00
43838;BME280;65998;46.256;7.534;2022-12-22T04:13:16;86937.44;;;4.44;100.00
43838;BME280;65998;46.256;7.534;2022-12-22T04:15:42;86928.59;;;4.44;100.00
43838;BME280;65998;46.256;7.534;2022-12-22T04:18:08;86914.38;;;4.52;100.00
43838;BME280;65998;46.256;7.534;2022-12-22T04:20:34;86908.16;;;4.41;100.00
43838;BME280;65998;46.256;7.534;2022-12-22T04:22:59;86909.53;;;4.42;100.00
43838;BME280;65998;46.256;7.534;2022-12-22T04:25:26;86914.16;;;4.27;100.00
43838;BME280;65998;46.256;7.534;2022-12-22T04:27:52;86902.66;;;4.33;100.00
43838;BME280;65998;46.256;7.534;2022-12-22T04:30:18;86914.16;;;4.27;100.00
43838;BME280;65998;46.256;7.534;2022-12-22T04:32:44;86918.16;;;4.20;100.00
43838;BME280;65998;46.256;7.534;2022-12-22T04:35:10;86926.94;;;4.16;100.00
43838;BME280;65998;46.256;7.534;2022-12-22T04:37:36;86915.44;;;4.20;100.00
43838;BME280;65998;46.256;7.534;2022-12-22T04:40:02;86914.72;;;4.18;100.00
43838;BME280;65998;46.256;7.534;2022-12-22T04:42:28;86921.41;;;4.10;100.00
43838;BME280;65998;46.256;7.534;2022-12-22T04:44:54;86918.75;;;4.14;100.00
43838;BME280;65998;46.256;7.534;2022-12-22T04:47:19;86921.47;;;4.14;100.00
43838;BME280;65998;46.256;7.534;2022-12-22T04:49:45;86922.13;;;4.13;100.00
43838;BME280;65998;46.256;7.534;2022-12-22T04:52:11;86913.31;;;4.14;100.00
43838;BME280;65998;46.256;7.534;2022-12-22T04:54:37;86919.47;;;4.17;100.00
43838;BME280;65998;46.256;7.534;2022-12-22T04:57:03;86914.69;;;4.15;100.00
43838;BME280;65998;46.256;7.534;2022-12-22T04:59:29;86913.38;;;4.19;100.00
43838;BME280;65998;46.256;7.534;2022-12-22T05:01:54;86914.78;;;4.22;100.00
43838;BME280;65998;46.256;7.534;2022-12-22T05:04:20;86918.75;;;4.14;100.00
43838;BME280;65998;46.256;7.534;2022-12-22T05:06:46;86917.41;;;4.15;100.00
43838;BME280;65998;46.256;7.534;2022-12-22T05:09:12;86919.41;;;4.13;100.00
43838;BME280;65998;46.256;7.534;2022-12-22T05:11:37;86916.72;;;4.15;100.00
43838;BME280;65998;46.256;7.534;2022-12-22T05:14:03;86907.28;;;4.20;100.00
43838;BME280;65998;46.256;7.534;2022-12-22T05:16:29;86912.69;;;4.18;100.00
43838;BME280;65998;46.256;7.534;2022-12-22T05:18:55;86914.69;;;4.15;100.00
43838;BME280;65998;46.256;7.534;2022-12-22T05:21:21;86917.41;;;4.15;100.00
43838;BME280;65998;46.256;7.534;2022-12-22T05:23:48;86920.16;;;4.18;100.00
43838;BME280;65998;46.256;7.534;2022-12-22T05:26:14;86930.94;;;4.11;100.00
43838;BME280;65998;46.256;7.534;2022-12-22T05:28:41;86923.47;;;4.12;100.00
43838;BME280;65998;46.256;7.534;2022-12-22T05:31:07;86920.09;;;4.13;100.00
43838;BME280;65998;46.256;7.534;2022-12-22T05:33:34;86924.81;;;4.11;100.00
43838;BME280;65998;46.256;7.534;2022-12-22T05:36:00;86923.47;;;4.10;100.00
43838;BME280;65998;46.256;7.534;2022-12-22T05:38:26;86926.16;;;4.08;100.00
43838;BME280;65998;46.256;7.534;2022-12-22T05:40:52;86930.28;;;4.11;100.00
43838;BME280;65998;46.256;7.534;2022-12-22T05:43:19;86930.25;;;4.09;100.00
43838;BME280;65998;46.256;7.534;2022-12-22T05:45:44;86939.81;;;4.14;100.00
43838;BME280;65998;46.256;7.534;2022-12-22T05:48:10;86941.94;;;4.18;100.00
43838;BME280;65998;46.256;7.534;2022-12-22T05:50:36;86940.56;;;4.19;100.00
43838;BME280;65998;46.256;7.534;2022-12-22T05:53:03;86944.03;;;4.25;100.00
43838;BME280;65998;46.256;7.534;2022-12-22T05:55:28;86949.50;;;4.27;100.00
43838;BME280;65998;46.256;7.534;2022-12-22T05:57:54;86958.38;;;4.30;100.00
43838;BME280;65998;46.256;7.534;2022-12-22T06:00:20;86965.25;;;4.37;100.00
43838;BME280;65998;46.256;7.534;2022-12-22T06:02:46;86963.25;;;4.41;100.00
43838;BME280;65998;46.256;7.534;2022-12-22T06:05:12;86969.44;;;4.48;100.00
43838;BME280;65998;46.256;7.534;2022-12-22T06:07:40;86973.59;;;4.53;100.00
43838;BME280;65998;46.256;7.534;2022-12-22T06:10:07;86985.16;;;4.54;100.00
43838;BME280;65998;46.256;7.534;2022-12-22T06:12:33;86983.78;;;4.53;100.00
43838;BME280;65998;46.256;7.534;2022-12-22T06:14:59;86988.59;;;4.56;100.00
43838;BME280;65998;46.256;7.534;2022-12-22T06:17:25;86989.28;;;4.57;100.00
43838;BME280;65998;46.256;7.534;2022-12-22T06:19:50;87000.16;;;4.57;100.00
43838;BME280;65998;46.256;7.534;2022-12-22T06:22:16;87010.16;;;4.40;100.00
43838;BME280;65998;46.256;7.534;2022-12-22T06:24:42;86998.66;;;4.45;100.00
43838;BME280;65998;46.256;7.534;2022-12-22T06:27:08;87004.81;;;4.48;100.00
43838;BME280;65998;46.256;7.534;2022-12-22T06:29:35;87003.50;;;4.51;100.00
43838;BME280;65998;46.256;7.534;2022-12-22T06:32:01;87003.56;;;4.57;100.00
43838;BME280;65998;46.256;7.534;2022-12-22T06:34:27;87002.91;;;4.61;100.00
43838;BME280;65998;46.256;7.534;2022-12-22T06:36:53;87006.31;;;4.61;100.00
43838;BME280;65998;46.256;7.534;2022-12-22T06:39:18;87001.53;;;4.58;100.00
43838;BME280;65998;46.256;7.534;2022-12-22T06:41:44;86996.75;;;4.58;100.00
43838;BME280;65998;46.256;7.534;2022-12-22T06:44:28;87002.25;;;4.62;100.00
43838;BME280;65998;46.256;7.534;2022-12-22T06:46:54;87009.69;;;4.58;100.00
43838;BME280;65998;46.256;7.534;2022-12-22T06:49:20;87005.00;;;4.64;100.00
43838;BME280;65998;46.256;7.534;2022-12-22T06:51:46;87010.34;;;4.56;100.00
43838;BME280;65998;46.256;7.534;2022-12-22T06:54:12;87000.81;;;4.55;100.00
43838;BME280;65998;46.256;7.534;2022-12-22T06:56:38;87010.47;;;4.66;100.00
43838;BME280;65998;46.256;7.534;2022-12-22T06:59:04;87007.06;;;4.68;100.00
43838;BME280;65998;46.256;7.534;2022-12-22T07:01:30;86994.88;;;4.73;100.00
43838;BME280;65998;46.256;7.534;2022-12-22T07:03:55;86988.69;;;4.66;100.00
43838;BME280;65998;46.256;7.534;2022-12-22T07:06:21;86981.88;;;4.67;100.00
43838;BME280;65998;46.256;7.534;2022-12-22T07:08:47;86984.59;;;4.65;100.00
43838;BME280;65998;46.256;7.534;2022-12-22T07:11:14;86983.25;;;4.66;100.00
43838;BME280;65998;46.256;7.534;2022-12-22T07:13:39;86981.88;;;4.67;100.00
43838;BME280;65998;46.256;7.534;2022-12-22T07:16:06;86975.81;;;4.71;100.00
43838;BME280;65998;46.256;7.534;2022-12-22T07:18:34;86967.03;;;4.78;100.00
43838;BME280;65998;46.256;7.534;2022-12-22T07:21:00;86959.53;;;4.79;100.00
43838;BME280;65998;46.256;7.534;2022-12-22T07:23:27;86970.41;;;4.77;100.00
43838;BME280;65998;46.256;7.534;2022-12-22T07:25:53;86975.81;;;4.71;100.00
43838;BME280;65998;46.256;7.534;2022-12-22T07:28:18;86969.63;;;4.66;100.00
43838;BME280;65998;46.256;7.534;2022-12-22T07:30:44;86962.13;;;4.63;100.00
43838;BME280;65998;46.256;7.534;2022-12-22T07:33:10;86976.44;;;4.65;100.00
43838;BME280;65998;46.256;7.534;2022-12-22T07:35:36;86989.38;;;4.67;100.00
43838;BME280;65998;46.256;7.534;2022-12-22T07:38:02;86984.63;;;4.69;100.00
43838;BME280;65998;46.256;7.534;2022-12-22T07:40:28;86983.97;;;4.71;100.00
43838;BME280;65998;46.256;7.534;2022-12-22T07:42:57;86976.53;;;4.77;100.00
43838;BME280;65998;46.256;7.534;2022-12-22T07:45:24;86973.81;;;4.75;100.00
43838;BME280;65998;46.256;7.534;2022-12-22T07:47:50;86977.91;;;4.76;100.00
43838;BME280;65998;46.256;7.534;2022-12-22T07:50:18;86976.53;;;4.75;100.00
43838;BME280;65998;46.256;7.534;2022-12-22T07:52:59;86978.00;;;4.87;100.00
43838;BME280;65998;46.256;7.534;2022-12-22T07:55:27;86984.25;;;5.01;100.00
43838;BME280;65998;46.256;7.534;2022-12-22T07:57:53;86991.13;;;5.08;100.00
43838;BME280;65998;46.256;7.534;2022-12-22T08:00:20;86987.78;;;5.16;100.00
43838;BME280;65998;46.256;7.534;2022-12-22T08:02:49;86990.50;;;5.16;100.00
43838;BME280;65998;46.256;7.534;2022-12-22T08:05:15;86982.41;;;5.22;100.00
43838;BME280;65998;46.256;7.534;2022-12-22T08:07:41;86981.06;;;5.25;100.00
43838;BME280;65998;46.256;7.534;2022-12-22T08:10:07;86983.78;;;5.25;100.00
43838;BME280;65998;46.256;7.534;2022-12-22T08:12:33;86995.28;;;5.18;100.00
43838;BME280;65998;46.256;7.534;2022-12-22T08:14:59;87004.09;;;5.12;100.00
43838;BME280;65998;46.256;7.534;2022-12-22T08:17:25;87002.19;;;5.27;100.00
43838;BME280;65998;46.256;7.534;2022-12-22T08:19:52;87003.66;;;5.38;100.00
43838;BME280;65998;46.256;7.534;2022-12-22T08:22:18;87027.56;;;5.48;100.00
43838;BME280;65998;46.256;7.534;2022-12-22T08:24:44;87027.59;;;5.50;100.00
43838;BME280;65998;46.256;7.534;2022-12-22T08:27:12;87025.53;;;5.48;100.00
43838;BME280;65998;46.256;7.534;2022-12-22T08:29:41;87031.66;;;5.47;100.00
43838;BME280;65998;46.256;7.534;2022-12-22T08:32:09;87034.38;;;5.47;100.00
43838;BME280;65998;46.256;7.534;2022-12-22T08:34:35;87036.31;;;5.36;100.00
43838;BME280;65998;46.256;7.534;2022-12-22T08:37:01;87030.91;;;5.40;100.00
43838;BME280;65998;46.256;7.534;2022-12-22T08:39:29;87039.88;;;5.53;100.00
43838;BME280;65998;46.256;7.534;2022-12-22T08:41:57;87046.75;;;5.62;100.00
43838;BME280;65998;46.256;7.534;2022-12-22T08:44:24;87028.34;;;5.60;100.00
43838;BME280;65998;46.256;7.534;2022-12-22T08:46:51;87032.50;;;5.69;100.00
43838;BME280;65998;46.256;7.534;2022-12-22T08:49:17;87041.41;;;5.74;100.00
43838;BME280;65998;46.256;7.534;2022-12-22T08:51:43;87042.78;;;5.79;100.00
43838;BME280;65998;46.256;7.534;2022-12-22T08:54:09;87027.06;;;5.73;100.00
43838;BME280;65998;46.256;7.534;2022-12-22T08:56:35;87027.25;;;5.98;100.00
43838;BME280;65998;46.256;7.534;2022-12-22T08:59:01;87048.41;;;5.99;100.00
43838;BME280;65998;46.256;7.534;2022-12-22T09:01:30;87045.03;;;6.03;100.00
43838;BME280;65998;46.256;7.534;2022-12-22T09:03:57;87032.13;;;6.12;100.00
43838;BME280;65998;46.256;7.534;2022-12-22T09:06:23;87041.00;;;6.16;100.00
43838;BME280;65998;46.256;7.534;2022-12-22T09:08:53;87058.16;;;6.27;100.00
43838;BME280;65998;46.256;7.534;2022-12-22T09:11:19;87064.34;;;6.35;100.00
43838;BME280;65998;46.256;7.534;2022-12-22T09:13:45;87061.47;;;6.17;100.00
43838;BME280;65998;46.256;7.534;2022-12-22T09:16:11;87074.53;;;6.29;100.00
43838;BME280;65998;46.256;7.534;2022-12-22T09:18:37;87083.50;;;6.46;100.00
43838;BME280;65998;46.256;7.534;2022-12-22T09:21:03;87083.50;;;6.44;100.00
43838;BME280;65998;46.256;7.534;2022-12-22T09:23:29;87077.38;;;6.49;100.00
43838;BME280;65998;46.256;7.534;2022-12-22T09:25:56;87067.22;;;6.68;100.00
43838;BME280;65998;46.256;7.534;2022-12-22T09:28:22;87065.88;;;6.73;100.00
43838;BME280;65998;46.256;7.534;2022-12-22T09:30:48;87055.63;;;6.69;100.00
43838;BME280;65998;46.256;7.534;2022-12-22T09:33:14;87063.84;;;6.76;100.00
43838;BME280;65998;46.256;7.534;2022-12-22T09:35:40;87071.38;;;6.77;100.00
43838;BME280;65998;46.256;7.534;2022-12-22T09:38:06;87064.59;;;6.94;100.00
43838;BME280;65998;46.256;7.534;2022-12-22T09:40:32;87062.59;;;7.11;100.00
43838;BME280;65998;46.256;7.534;2022-12-22T09:42:58;87065.34;;;7.17;100.00
43838;BME280;65998;46.256;7.534;2022-12-22T09:45:24;87064.69;;;7.23;100.00
43838;BME280;65998;46.256;7.534;2022-12-22T09:47:51;87076.97;;;7.20;100.00
43838;BME280;65998;46.256;7.534;2022-12-22T09:50:18;87083.81;;;7.19;100.00
43838;BME280;65998;46.256;7.534;2022-12-22T09:53:12;87081.06;;;7.13;100.00
43838;BME280;65998;46.256;7.534;2022-12-22T09:55:38;87079.66;;;7.05;100.00
43838;BME280;65998;46.256;7.534;2022-12-22T09:58:47;87086.50;;;7.11;100.00
43838;BME280;65998;46.256;7.534;2022-12-22T10:08:49;87076.19;;;6.89;100.00
43838;BME280;65998;46.256;7.534;2022-12-22T10:11:15;87071.41;;;6.91;100.00
43838;BME280;65998;46.256;7.534;2022-12-22T10:13:42;87060.50;;;6.89;100.00
43838;BME280;65998;46.256;7.534;2022-12-22T10:16:21;87066.63;;;6.90;100.00
43838;BME280;65998;46.256;7.534;2022-12-22T10:19:06;87072.06;;;6.82;100.00
43838;BME280;65998;46.256;7.534;2022-12-22T10:21:31;87065.22;;;6.77;100.00
43838;BME280;65998;46.256;7.534;2022-12-22T10:23:57;87067.28;;;6.82;100.00
43838;BME280;65998;46.256;7.534;2022-12-22T10:26:27;87061.84;;;6.84;100.00
43838;BME280;65998;46.256;7.534;2022-12-22T10:31:26;87057.03;;;6.79;100.00
43838;BME280;65998;46.256;7.534;2022-12-22T10:33:54;87059.09;;;6.82;100.00
43838;BME280;65998;46.256;7.534;2022-12-22T10:36:22;87051.56;;;6.79;100.00
43838;BME280;65998;46.256;7.534;2022-12-22T10:39:00;87043.91;;;6.43;100.00
43838;BME280;65998;46.256;7.534;2022-12-22T10:41:28;87033.00;;;6.45;100.00
43838;BME280;65998;46.256;7.534;2022-12-22T10:43:56;87027.56;;;6.49;100.00
43838;BME280;65998;46.256;7.534;2022-12-22T10:46:34;87044.00;;;6.65;100.00
43838;BME280;65998;46.256;7.534;2022-12-22T10:51:41;87034.38;;;6.48;100.00
43838;BME280;65998;46.256;7.534;2022-12-22T10:54:08;87036.50;;;6.67;100.00
43838;BME280;65998;46.256;7.534;2022-12-22T10:56:47;87031.06;;;6.69;100.00
43838;BME280;65998;46.256;7.534;2022-12-22T10:59:23;87037.84;;;6.62;100.00
43838;BME280;65998;46.256;7.534;2022-12-22T11:01:48;87028.94;;;6.56;100.00
43838;BME280;65998;46.256;7.534;2022-12-22T11:04:16;87038.53;;;6.65;100.00
43838;BME280;65998;46.256;7.534;2022-12-22T11:06:42;87032.41;;;6.66;100.00
43838;BME280;65998;46.256;7.534;2022-12-22T11:09:11;87037.91;;;6.79;100.00
43838;BME280;65998;46.256;7.534;2022-12-22T11:11:39;87024.25;;;6.75;100.00
43838;BME280;65998;46.256;7.534;2022-12-22T11:16:36;87023.66;;;7.02;100.00
43838;BME280;65998;46.256;7.534;2022-12-22T11:19:23;87022.22;;;6.81;100.00
43838;BME280;65998;46.256;7.534;2022-12-22T11:27:27;87016.91;;;7.32;100.00
43838;BME280;65998;46.256;7.534;2022-12-22T11:33:01;87016.91;;;7.34;100.00
43838;BME280;65998;46.256;7.534;2022-12-22T11:50:45;87025.03;;;7.10;100.00
43838;BME280;65998;46.256;7.534;2022-12-22T12:03:44;87037.34;;;7.15;100.00
43838;BME280;65998;46.256;7.534;2022-12-22T12:06:30;87035.28;;;7.13;100.00
43838;BME280;65998;46.256;7.534;2022-12-22T12:14:10;87018.19;;;7.11;100.00
43838;BME280;65998;46.256;7.534;2022-12-22T12:16:59;87007.91;;;6.93;100.00
43838;BME280;65998;46.256;7.534;2022-12-22T12:21:57;87022.91;;;6.78;100.00
43838;BME280;65998;46.256;7.534;2022-12-22T12:24:25;87022.19;;;6.73;100.00
43838;BME280;65998;46.256;7.534;2022-12-22T12:29:26;87026.34;;;6.94;100.00
43838;BME280;65998;46.256;7.534;2022-12-22T12:34:18;87020.88;;;6.84;100.00
43838;BME280;65998;46.256;7.534;2022-12-22T12:36:56;87022.22;;;6.83;100.00
43838;BME280;65998;46.256;7.534;2022-12-22T12:39:35;87016.03;;;6.70;100.00
43838;BME280;65998;46.256;7.534;2022-12-22T12:44:37;87027.00;;;6.83;100.00
43838;BME280;65998;46.256;7.534;2022-12-22T12:49:58;87030.34;;;6.59;100.00
43838;BME280;65998;46.256;7.534;2022-12-22T12:55:23;87027.00;;;6.81;100.00
43838;BME280;65998;46.256;7.534;2022-12-22T12:57:50;87028.34;;;6.71;100.00
43838;BME280;65998;46.256;7.534;2022-12-22T13:17:30;87047.91;;;6.25;100.00
43838;BME280;65998;46.256;7.534;2022-12-22T13:19:45;87042.47;;;6.27;100.00
43838;BME280;65998;46.256;7.534;2022-12-22T13:22:11;87041.78;;;6.29;100.00
43838;BME280;65998;46.256;7.534;2022-12-22T13:24:39;87037.66;;;6.24;100.00
43838;BME280;65998;46.256;7.534;2022-12-22T13:27:08;87052.59;;;6.17;100.00
43838;BME280;65998;46.256;7.534;2022-12-22T13:32:25;87040.28;;;6.07;100.00
43838;BME280;65998;46.256;7.534;2022-12-22T13:37:19;87051.28;;;6.24;100.00
43838;BME280;65998;46.256;7.534;2022-12-22T13:42:30;87047.25;;;6.27;100.00
43838;BME280;65998;46.256;7.534;2022-12-22T13:44:59;87045.81;;;6.20;100.00
43838;BME280;65998;46.256;7.534;2022-12-22T13:47:25;87047.06;;;6.02;100.00
43838;BME280;65998;46.256;7.534;2022-12-22T13:49:52;87045.66;;;5.97;100.00
43838;BME280;65998;46.256;7.534;2022-12-22T13:52:17;87043.66;;;6.02;100.00
43838;BME280;65998;46.256;7.534;2022-12-22T13:54:46;87047.06;;;6.02;100.00
43838;BME280;65998;46.256;7.534;2022-12-22T13:57:16;87047.06;;;6.02;100.00
43838;BME280;65998;46.256;7.534;2022-12-22T13:59:43;87039.56;;;6.03;100.00
43838;BME280;65998;46.256;7.534;2022-12-22T14:04:37;87034.13;;;6.03;100.00
43838;BME280;65998;46.256;7.534;2022-12-22T14:07:13;87037.50;;;5.99;100.00
43838;BME280;65998;46.256;7.534;2022-12-22T14:09:43;87031.34;;;5.97;100.00
43838;BME280;65998;46.256;7.534;2022-12-22T14:12:13;87029.28;;;5.91;100.00
43838;BME280;65998;46.256;7.534;2022-12-22T14:14:41;87034.06;;;5.93;100.00
43838;BME280;65998;46.256;7.534;2022-12-22T14:19:54;87040.19;;;5.91;100.00
43838;BME280;65998;46.256;7.534;2022-12-22T14:22:21;87041.53;;;5.90;100.00
43838;BME280;65998;46.256;7.534;2022-12-22T14:24:50;87047.00;;;5.94;100.00
43838;BME280;65998;46.256;7.534;2022-12-22T14:27:41;87048.34;;;5.91;100.00
43838;BME280;65998;46.256;7.534;2022-12-22T14:30:16;87055.13;;;5.88;100.00
43838;BME280;65998;46.256;7.534;2022-12-22T14:32:46;87044.91;;;5.87;100.00
43838;BME280;65998;46.256;7.534;2022-12-22T14:37:48;87045.63;;;5.89;100.00
43838;BME280;65998;46.256;7.534;2022-12-22T14:43:00;87044.91;;;5.89;100.00
43838;BME280;65998;46.256;7.534;2022-12-22T14:45:27;87046.94;;;5.88;100.00
43838;BME280;65998;46.256;7.534;2022-12-22T14:47:53;87042.25;;;5.95;100.00
43838;BME280;65998;46.256;7.534;2022-12-22T14:50:21;87036.81;;;5.97;100.00
43838;BME280;65998;46.256;7.534;2022-12-22T14:52:49;87040.25;;;6.01;100.00
43838;BME280;65998;46.256;7.534;2022-12-22T14:55:26;87043.69;;;6.06;100.00
43838;BME280;65998;46.256;7.534;2022-12-22T14:57:54;87032.09;;;6.05;100.00
43838;BME280;65998;46.256;7.534;2022-12-22T15:02:50;87038.91;;;6.06;100.00
43838;BME280;65998;46.256;7.534;2022-12-22T15:07:50;87041.53;;;5.90;100.00
43838;BME280;65998;46.256;7.534;2022-12-22T15:10:16;87035.41;;;5.92;100.00
43838;BME280;65998;46.256;7.534;2022-12-22T15:12:43;87036.09;;;5.92;100.00
43838;BME280;65998;46.256;7.534;2022-12-22T15:15:19;87036.72;;;5.89;100.00
43838;BME280;65998;46.256;7.534;2022-12-22T15:17:51;87032.63;;;5.86;100.00
43838;BME280;65998;46.256;7.534;2022-12-22T15:20:18;87025.75;;;5.81;100.00
43838;BME280;65998;46.256;7.534;2022-12-22T15:22:45;87021.69;;;5.84;100.00
43838;BME280;65998;46.256;7.534;2022-12-22T15:25:16;87031.19;;;5.78;100.00
43838;BME280;65998;46.256;7.534;2022-12-22T15:27:42;87021.66;;;5.77;100.00
43838;BME280;65998;46.256;7.534;2022-12-22T15:30:09;87020.28;;;5.78;100.00
43838;BME280;65998;46.256;7.534;2022-12-22T15:32:35;87023.66;;;5.73;100.00
43838;BME280;65998;46.256;7.534;2022-12-22T15:35:01;87018.78;;;5.57;100.00
43838;BME280;65998;46.256;7.534;2022-12-22T15:37:28;87017.31;;;5.44;100.00
43838;BME280;65998;46.256;7.534;2022-12-22T15:39:54;87024.09;;;5.41;100.00